ADDS METAR Data INFO
IDs: Format: Raw Decoded Include TAF

Data at: 0930 UTC 11 Dec 2017

KCVG 110852Z 28005KT 10SM CLR M02/M05 A3008 RMK AO2 SLP193 T10221050 51006
KCVG 110752Z 27005KT 10SM CLR M02/M06 A3008 RMK AO2 SLP194 T10221056
KCVG 110652Z 28006KT 10SM CLR M03/M06 A3008 RMK AO2 SLP193 T10331056
KCVG 110552Z 27007KT 10SM CLR M03/M06 A3007 RMK AO2 SLP188 T10281056 10011 21028 51012
KCVG 110452Z 27007KT 10SM CLR M01/M05 A3006 RMK AO2 SLP185 T10061050 400171067
KCVG 110352Z 25005KT 10SM FEW040 01/M06 A3004 RMK AO2 SLP180 T00061056
KCVG 110252Z 23006KT 10SM SCT150 01/M06 A3003 RMK AO2 SLP176 T00061061 53005
KCVG 110152Z 22006KT 10SM BKN150 00/M07 A3002 RMK AO2 SLP173 T00001067
KCVG 110052Z 22005KT 10SM FEW150 01/M07 A3002 RMK AO2 SLP173 T00061067
KCVG 102352Z 21006KT 10SM CLR 01/M07 A3001 RMK AO2 SLP171 T00061067 10017 20000 52019
KCVG 102252Z 22006KT 10SM FEW100 01/M07 A3000 RMK AO2 SLP166 T00061067
KCVG 102152Z 21010KT 10SM FEW100 02/M07 A2997 RMK AO2 SLP157 T00171072
KCVG 102052Z 20011G20KT 10SM SCT080 BKN120 02/M07 A2996 RMK AO2 SLP151 T00171067 56029
KCVG 101952Z 19014G18KT 10SM BKN085 OVC100 01/M06 A2997 RMK AO2 SLP157 T00111061
KCVG 101852Z 21011G19KT 10SM BKN090 OVC110 01/M07 A3000 RMK AO2 SLP166 T00061067
KCVG 101752Z 23014KT 10SM BKN095 OVC110 00/M07 A3005 RMK AO2 SLP181 T00001067 10000 21067 58026
KCVG 101652Z 21010G18KT 10SM BKN100 OVC120 M01/M07 A3008 RMK AO2 SLP193 BINOVC S T10111067
KCVG 101552Z 22010G17KT 10SM BKN070 OVC090 M03/M07 A3012 RMK AO2 SLP206 BINOVC S T10281072
KCVG 101452Z 22011KT 10SM BKN090 OVC130 M04/M08 A3012 RMK AO2 SLP209 BINOVC SE T10391078 52002
KCVG 101352Z 22008KT 10SM SCT130 BKN150 M05/M08 A3011 RMK AO2 SLP206 T10501083
KCVG 101252Z 22007KT 10SM FEW120 SCT150 M07/M09 A3013 RMK AO2 SLP211 T10671089
KCVG 101152Z 22006KT 10SM CLR M06/M09 A3012 RMK AO2 SLP207 70001 T10611089 11022 21061 53006
KCVG 101052Z 23007KT 10SM CLR M06/M09 A3011 RMK AO2 SLP204 T10561089
KCVG 100952Z 22004KT 10SM CLR M06/M09 A3010 RMK AO2 SLP200 T10611089
KCVG 100852Z 26007KT 10SM SCT028 M05/M08 A3010 RMK AO2 SLP201 T10501083 51007
KCVG 100752Z 28010KT 10SM FEW028 M04/M07 A3009 RMK AO2 SLP198 T10391072
KCVG 100749Z 28009KT 10SM SCT028 M04/M07 A3009 RMK AO2
KCVG 100652Z 28012KT 10SM OVC028 M03/M06 A3008 RMK AO2 SLP193 T10281061
KCVG 100552Z 28012KT 10SM BKN024 OVC034 M02/M06 A3007 RMK AO2 SLP189 04/001 931006 60000 T10221061 11011 21022 51021
KCVG 100452Z 29016KT 10SM OVC028 M02/M06 A3005 RMK AO2 PK WND 29028/0409 SLP182 T10171056 410111089
KCVG 100352Z 29020G23KT 10SM OVC026 M02/M06 A3003 RMK AO2 SLP177 T10171056
KCVG 100252Z 28012KT 10SM OVC024 M02/M05 A3000 RMK AO2 SLP167 60000 T10171050 52029
KCVG 100152Z 27012KT 10SM OVC024 M02/M05 A2997 RMK AO2 SLP158 T10221050
KCVG 100112Z 26014G24KT 10SM BKN024 OVC031 M02/M05 A2995 RMK AO2 T10221050
KCVG 100052Z 27015KT 10SM OVC033 M02/M05 A2994 RMK AO2 PK WND 28027/0022 SNB22E44 SLP148 P0000 T10221050
KCVG 092352Z 27011KT 10SM BKN055 OVC095 M02/M05 A2991 RMK AO2 SNE00 SLP138 4/001 931006 P0000 60001 T10221050 11017 21028 51031
KCVG 092252Z 26009KT 3SM -SN BR BKN017 BKN027 OVC080 M02/M03 A2989 RMK AO2 VIS 1 3/4 36R SLP130 P0000 T10221033
KCVG 092222Z 25006KT 3/4SM R18C/5500VP6000FT -SN BR BKN017 BKN025 OVC065 M02/M03 A2987 RMK AO2 P0000 T10221028
KCVG 092215Z 25007KT 1SM R18C/P6000FT -SN BR SCT022 BKN028 OVC065 M02/M03 A2987 RMK AO2 P0000 T10221028
KCVG 092207Z 25006KT 3SM -SN BR FEW017 BKN033 OVC065 M02/M03 A2987 RMK AO2 P0000 T10221033
KCVG 092152Z 24007KT 2SM -SN BR FEW023 OVC030 M02/M03 A2986 RMK AO2 SNB2055 CIG 025 36R SLP119 P0001 T10221033